Time;durP1;ratioP1;P1;durP2;ratioP2;P2;SDS_P1;SDS_P2;PMS_P1;PMS_P2;Temp;Humidity;BMP_temperature;BMP_pressure;BME280_temperature;BME280_humidity;BME280_pressure;Samples;Min_cycle;Max_cycle;Signal;HPM_P1;HPM_P2
2022/05/03 00:01:18;;;;;;;17.87;16.27;;;11.60;99.90;;;;;;5069218;28;20475;-65
2022/05/03 00:03:52;;;;;;;21.60;19.30;;;11.60;99.90;;;;;;5069782;28;20583;-64
2022/05/03 00:06:29;;;;;;;19.50;17.70;;;11.60;99.90;;;;;;5069525;28;20504;-65
2022/05/03 00:09:04;;;;;;;20.13;18.23;;;11.70;99.90;;;;;;5069513;28;20454;-65
2022/05/03 00:11:33;;;;;;;20.20;18.20;;;11.70;99.90;;;;;;5068828;28;20478;-65
2022/05/03 00:14:10;;;;;;;21.10;19.17;;;11.60;99.90;;;;;;5069684;28;20483;-64
2022/05/03 00:16:39;;;;;;;22.00;19.90;;;11.50;99.90;;;;;;5069541;28;20530;-65
2022/05/03 00:19:07;;;;;;;21.30;19.30;;;11.40;99.90;;;;;;5069565;28;20530;-65
2022/05/03 00:21:35;;;;;;;21.07;19.10;;;11.40;99.90;;;;;;5069032;28;20478;-65
2022/05/03 00:24:04;;;;;;;20.73;18.77;;;11.40;99.90;;;;;;5069431;28;20530;-64
2022/05/03 00:26:33;;;;;;;20.03;18.13;;;11.40;99.90;;;;;;5069706;28;20528;-64
2022/05/03 00:29:01;;;;;;;22.97;20.83;;;11.40;99.90;;;;;;5069659;28;20814;-65
2022/05/03 00:31:29;;;;;;;20.63;18.63;;;11.50;99.90;;;;;;5069371;28;20549;-64
2022/05/03 00:33:57;;;;;;;19.77;17.77;;;11.50;99.90;;;;;;5069670;28;20449;-65
2022/05/03 00:36:24;;;;;;;19.87;17.70;;;11.40;99.90;;;;;;5069519;28;20443;-64
2022/05/03 00:38:52;;;;;;;19.30;17.50;;;11.40;99.90;;;;;;5069477;28;20454;-64
2022/05/03 00:41:31;;;;;;;19.70;17.70;;;11.30;99.90;;;;;;5069273;28;20466;-64
2022/05/03 00:44:55;;;;;;;20.03;18.33;;;11.20;99.90;;;;;;5069595;28;20486;-65
2022/05/03 00:46:58;;;;;;;17.63;15.93;;;11.20;99.90;;;;;;5069202;28;20440;-65
2022/05/03 00:49:32;;;;;;;20.03;18.07;;;11.20;99.90;;;;;;5069444;28;21027;-64
2022/05/03 00:52:07;;;;;;;18.57;16.80;;;11.10;99.90;;;;;;5069091;28;20546;-65
2022/05/03 00:54:46;;;;;;;17.73;16.13;;;11.10;99.90;;;;;;5069116;28;20537;-64
2022/05/03 00:57:24;;;;;;;18.07;16.40;;;11.00;99.90;;;;;;5069359;28;20446;-64
2022/05/03 01:00:06;;;;;;;19.97;17.97;;;10.90;99.90;;;;;;5069164;28;20447;-65
2022/05/03 01:02:47;;;;;;;18.27;16.60;;;10.90;99.90;;;;;;5069125;28;20565;-65
2022/05/03 01:05:20;;;;;;;18.90;17.00;;;10.90;99.90;;;;;;5069095;28;20469;-65
2022/05/03 01:07:52;;;;;;;17.70;16.10;;;10.80;99.90;;;;;;5069043;28;20447;-65
2022/05/03 01:10:28;;;;;;;18.43;16.63;;;10.80;99.90;;;;;;5068778;28;20459;-65
2022/05/03 01:13:01;;;;;;;18.03;16.23;;;10.70;99.90;;;;;;5069269;28;20528;-64
2022/05/03 01:15:32;;;;;;;21.63;17.00;;;10.60;99.90;;;;;;5068914;28;20454;-65
2022/05/03 01:18:11;;;;;;;19.23;17.33;;;10.60;99.90;;;;;;5069015;28;20526;-64
2022/05/03 01:20:49;;;;;;;18.63;16.80;;;10.50;99.90;;;;;;5068585;28;20470;-64
2022/05/03 01:23:43;;;;;;;17.40;15.87;;;10.50;99.90;;;;;;5071704;28;20526;-64
2022/05/03 01:26:43;;;;;;;18.30;16.67;;;10.50;99.90;;;;;;5072765;28;20446;-64
2022/05/03 01:29:33;;;;;;;19.20;17.40;;;10.60;99.90;;;;;;5069389;28;20461;-65
2022/05/03 01:32:01;;;;;;;17.90;16.30;;;10.60;99.90;;;;;;5072134;28;20463;-64
2022/05/03 01:34:29;;;;;;;20.30;18.30;;;10.60;99.90;;;;;;5072223;28;20816;-64
2022/05/03 01:37:15;;;;;;;22.17;19.03;;;10.50;99.90;;;;;;5072184;28;20543;-62
2022/05/03 01:39:57;;;;;;;20.23;18.40;;;10.40;99.90;;;;;;5072204;28;20443;-65
2022/05/03 01:42:30;;;;;;;21.00;19.20;;;10.30;99.90;;;;;;5071965;28;20487;-65
2022/05/03 01:45:03;;;;;;;20.23;18.37;;;10.30;99.90;;;;;;5072257;28;20504;-65
2022/05/03 01:47:46;;;;;;;20.27;18.37;;;10.30;99.90;;;;;;5072033;28;20442;-65
2022/05/03 01:50:20;;;;;;;20.77;18.67;;;10.30;99.90;;;;;;5071717;28;20447;-65
2022/05/03 01:53:10;;;;;;;20.37;18.53;;;10.20;99.90;;;;;;5072048;28;20435;-65
2022/05/03 01:55:57;;;;;;;26.60;23.80;;;10.10;99.90;;;;;;5071984;28;20526;-65
2022/05/03 01:58:36;;;;;;;33.93;29.30;;;10.00;99.90;;;;;;5072026;28;20450;-64
2022/05/03 02:01:09;;;;;;;45.20;35.57;;;9.90;99.90;;;;;;5071509;28;20475;-64
2022/05/03 02:03:47;;;;;;;31.23;27.80;;;9.90;99.90;;;;;;5071765;28;20479;-65
2022/05/03 02:06:14;;;;;;;24.83;22.20;;;9.80;99.90;;;;;;5071753;28;20443;-65
2022/05/03 02:08:53;;;;;;;24.73;22.37;;;9.70;99.90;;;;;;5071753;28;20455;-64
2022/05/03 02:11:38;;;;;;;23.03;20.87;;;9.70;99.90;;;;;;5071219;28;20467;-64
2022/05/03 02:17:14;;;;;;;23.27;20.53;;;9.60;99.90;;;;;;5071494;28;20937;-65
2022/05/03 02:20:06;;;;;;;21.83;19.67;;;9.50;99.90;;;;;;5071706;28;20431;-64
2022/05/03 02:22:54;;;;;;;22.90;20.50;;;9.40;99.90;;;;;;5071229;28;21010;-64
2022/05/03 02:25:33;;;;;;;21.17;19.07;;;9.40;99.90;;;;;;5071516;28;20450;-65
2022/05/03 02:28:04;;;;;;;21.70;19.57;;;9.40;99.90;;;;;;5071177;28;20533;-65
2022/05/03 02:30:33;;;;;;;25.70;21.07;;;9.40;99.90;;;;;;5071085;28;20463;-65
2022/05/03 02:33:14;;;;;;;26.90;21.40;;;9.40;99.90;;;;;;5070684;28;20444;-65
2022/05/03 02:35:48;;;;;;;26.33;23.63;;;9.30;99.90;;;;;;5071347;28;20443;-65
2022/05/03 02:38:20;;;;;;;26.57;23.90;;;9.20;99.90;;;;;;5071206;28;20451;-65
2022/05/03 02:40:52;;;;;;;31.70;26.40;;;9.10;99.90;;;;;;5070648;28;20982;-65
2022/05/03 02:43:25;;;;;;;27.77;24.80;;;9.20;99.90;;;;;;5070795;28;20483;-64
2022/05/03 02:45:59;;;;;;;23.43;21.13;;;9.30;99.90;;;;;;5070857;28;20931;-64
2022/05/03 02:48:34;;;;;;;22.10;20.00;;;9.30;99.90;;;;;;5070969;28;20825;-65
2022/05/03 02:51:04;;;;;;;21.77;19.57;;;9.30;99.90;;;;;;5070536;28;20480;-65
2022/05/03 02:53:43;;;;;;;24.47;22.17;;;9.10;99.90;;;;;;5070664;28;20514;-65
2022/05/03 02:56:20;;;;;;;23.77;21.27;;;9.00;99.90;;;;;;5070641;28;20550;-64
2022/05/03 02:59:02;;;;;;;24.57;21.93;;;8.90;99.90;;;;;;5070830;28;20530;-64
2022/05/03 03:01:47;;;;;;;24.63;22.20;;;8.90;99.90;;;;;;5070133;28;20542;-65
2022/05/03 03:04:30;;;;;;;24.23;21.77;;;8.90;99.90;;;;;;5070490;28;20483;-64
2022/05/03 03:06:57;;;;;;;24.90;22.40;;;8.80;99.90;;;;;;5070731;28;20451;-63
2022/05/03 03:09:30;;;;;;;25.03;22.53;;;8.80;99.90;;;;;;5070771;28;20449;-65
2022/05/03 03:12:02;;;;;;;26.40;23.67;;;8.70;99.90;;;;;;5070468;28;20499;-65
2022/05/03 03:14:36;;;;;;;25.30;22.60;;;8.60;99.90;;;;;;5070722;28;20449;-64
2022/05/03 03:17:06;;;;;;;25.67;23.03;;;8.60;99.90;;;;;;5070503;28;20451;-64
2022/05/03 03:20:04;;;;;;;26.23;23.53;;;8.60;99.90;;;;;;5070620;28;20443;-64
2022/05/03 03:22:32;;;;;;;24.27;21.80;;;8.60;99.90;;;;;;5070176;28;20455;-65
2022/05/03 03:25:00;;;;;;;26.43;23.70;;;8.60;99.90;;;;;;5070362;28;20542;-64
2022/05/03 03:27:29;;;;;;;24.87;22.17;;;8.50;99.90;;;;;;5070094;28;20455;-63
2022/05/03 03:29:57;;;;;;;22.40;20.20;;;8.60;99.90;;;;;;5069763;28;20454;-64
2022/05/03 03:32:25;;;;;;;24.53;20.40;;;8.60;99.90;;;;;;5069909;28;21027;-65
2022/05/03 03:34:55;;;;;;;23.40;20.97;;;8.50;99.90;;;;;;5070077;28;20458;-64
2022/05/03 03:37:25;;;;;;;23.80;21.20;;;8.50;99.90;;;;;;5070046;28;20451;-64
2022/05/03 03:39:52;;;;;;;22.47;20.30;;;8.60;99.90;;;;;;5069617;28;20505;-64
2022/05/03 03:42:19;;;;;;;24.43;22.13;;;8.60;99.90;;;;;;5069343;28;20581;-64
2022/05/03 03:44:46;;;;;;;23.53;21.03;;;8.60;99.90;;;;;;5069188;28;20869;-64
2022/05/03 03:47:15;;;;;;;21.30;19.20;;;8.70;99.90;;;;;;5069736;28;20451;-65
2022/05/03 03:49:42;;;;;;;22.30;20.20;;;8.70;99.90;;;;;;5069876;28;20446;-65
2022/05/03 03:52:13;;;;;;;21.80;19.77;;;8.70;99.90;;;;;;5069143;28;20467;-64
2022/05/03 03:54:41;;;;;;;20.67;18.60;;;8.60;99.90;;;;;;5069629;28;20447;-64
2022/05/03 03:57:09;;;;;;;23.30;20.90;;;8.60;99.90;;;;;;5069641;28;21007;-65
2022/05/03 03:59:38;;;;;;;22.93;20.70;;;8.50;99.90;;;;;;5069701;28;20826;-65
2022/05/03 04:02:05;;;;;;;24.77;22.37;;;8.40;99.90;;;;;;5068903;28;20471;-65
2022/05/03 04:04:35;;;;;;;24.20;21.60;;;8.30;99.90;;;;;;5069465;28;20486;-64
2022/05/03 04:07:03;;;;;;;24.03;19.93;;;8.40;99.90;;;;;;5069375;28;20947;-64
2022/05/03 04:09:32;;;;;;;21.77;19.67;;;8.40;99.90;;;;;;5069566;28;20457;-65
2022/05/03 04:12:01;;;;;;;21.53;19.30;;;8.50;99.90;;;;;;5069041;28;20546;-65
2022/05/03 04:14:28;;;;;;;21.30;19.00;;;8.40;99.90;;;;;;5069305;28;20450;-64
2022/05/03 04:16:55;;;;;;;24.90;22.33;;;8.40;99.90;;;;;;5069748;28;20447;-64
2022/05/03 04:19:22;;;;;;;23.00;20.60;;;8.40;99.90;;;;;;5069810;28;20450;-66
2022/05/03 04:21:49;;;;;;;22.70;20.47;;;8.30;99.90;;;;;;5069201;28;20463;-64
2022/05/03 04:24:16;;;;;;;23.80;21.37;;;8.30;99.90;;;;;;5069542;28;20490;-65
2022/05/03 04:26:44;;;;;;;26.00;23.30;;;8.20;99.90;;;;;;5069376;28;20439;-64
2022/05/03 04:29:11;;;;;;;26.03;23.47;;;8.30;99.90;;;;;;5069253;28;20451;-65
2022/05/03 04:31:38;;;;;;;28.20;23.17;;;8.20;99.90;;;;;;5069027;28;21033;-66
2022/05/03 04:34:06;;;;;;;22.93;20.67;;;8.30;99.90;;;;;;5069685;28;20450;-66
2022/05/03 04:36:35;;;;;;;26.10;23.30;;;8.30;99.90;;;;;;5068808;28;20482;-66
2022/05/03 04:39:03;;;;;;;24.10;21.70;;;8.30;99.90;;;;;;5068943;28;20537;-69
2022/05/03 04:41:29;;;;;;;22.17;19.90;;;8.40;99.90;;;;;;5068642;28;20570;-65
2022/05/03 04:43:58;;;;;;;21.00;19.00;;;8.50;99.90;;;;;;5070830;28;20474;-64
2022/05/03 04:46:24;;;;;;;25.73;21.03;;;8.50;99.90;;;;;;5087614;28;21106;-64
2022/05/03 04:48:51;;;;;;;22.07;19.77;;;8.60;99.90;;;;;;5083878;28;20452;-65
2022/05/03 04:51:20;;;;;;;22.63;20.20;;;8.60;99.90;;;;;;5084544;28;20470;-66
2022/05/03 04:53:47;;;;;;;20.13;17.70;;;8.70;99.90;;;;;;5088010;28;20446;-65
2022/05/03 04:56:18;;;;;;;23.13;20.60;;;8.70;99.90;;;;;;5089816;28;20529;-65
2022/05/03 04:58:46;;;;;;;22.53;20.43;;;8.70;99.90;;;;;;5092142;28;20456;-65
2022/05/03 05:01:14;;;;;;;23.30;20.80;;;8.70;99.90;;;;;;5083335;28;20838;-65
2022/05/03 05:03:41;;;;;;;20.70;18.63;;;8.80;99.90;;;;;;5092046;28;20573;-66
2022/05/03 05:06:09;;;;;;;20.60;18.37;;;8.80;99.90;;;;;;5091953;28;20450;-65
2022/05/03 05:08:36;;;;;;;21.00;18.83;;;9.00;99.90;;;;;;5091644;28;20458;-65
2022/05/03 05:11:03;;;;;;;21.50;19.27;;;9.00;99.90;;;;;;5091632;28;20480;-66
2022/05/03 05:13:30;;;;;;;20.80;18.70;;;9.00;99.90;;;;;;5091738;28;21059;-65
2022/05/03 05:15:57;;;;;;;20.43;18.43;;;9.10;99.90;;;;;;5091822;28;20790;-70
2022/05/03 05:18:27;;;;;;;19.70;17.73;;;9.20;99.90;;;;;;5092117;28;20485;-70
2022/05/03 05:20:53;;;;;;;21.80;19.50;;;9.10;99.90;;;;;;5085690;28;21003;-65
2022/05/03 05:23:20;;;;;;;21.93;19.63;;;9.20;99.90;;;;;;5089649;28;20469;-65
2022/05/03 05:25:47;;;;;;;18.60;16.60;;;9.30;99.90;;;;;;5082642;28;20439;-64
2022/05/03 05:28:15;;;;;;;19.90;17.97;;;9.30;99.90;;;;;;5080286;28;20450;-66
2022/05/03 05:30:41;;;;;;;21.27;19.00;;;9.40;99.90;;;;;;5090255;28;20999;-66
2022/05/03 05:33:09;;;;;;;20.30;18.17;;;9.50;99.90;;;;;;5084064;28;20478;-66
2022/05/03 05:35:37;;;;;;;19.90;17.90;;;9.60;99.90;;;;;;5081939;28;20479;-64
2022/05/03 05:38:04;;;;;;;20.37;18.33;;;9.70;99.90;;;;;;5081830;28;20500;-65
2022/05/03 05:40:31;;;;;;;19.33;17.43;;;9.90;99.90;;;;;;5083602;28;20835;-66
2022/05/03 05:43:01;;;;;;;18.97;17.17;;;9.90;99.90;;;;;;5082356;28;20454;-66
2022/05/03 05:45:28;;;;;;;19.40;17.50;;;10.00;99.90;;;;;;5082471;28;20474;-65
2022/05/03 05:47:56;;;;;;;19.30;17.43;;;10.10;99.90;;;;;;5084179;28;20455;-66
2022/05/03 05:50:23;;;;;;;17.67;16.00;;;10.20;99.90;;;;;;5083412;28;20465;-66
2022/05/03 05:55:36;;;;;;;18.23;16.47;;;10.40;99.90;;;;;;5082030;28;20457;-65
2022/05/03 05:58:03;;;;;;;18.90;17.13;;;10.50;99.90;;;;;;5081589;28;20450;-64
2022/05/03 06:00:30;;;;;;;18.60;16.83;;;10.60;99.90;;;;;;5082904;28;20466;-65
2022/05/03 06:02:58;;;;;;;18.00;16.40;;;10.70;99.90;;;;;;5089922;28;20809;-66
2022/05/03 06:05:25;;;;;;;18.73;16.83;;;10.80;99.90;;;;;;5091323;28;20474;-66
2022/05/03 06:07:53;;;;;;;17.37;15.87;;;10.90;99.90;;;;;;5089867;28;21225;-66
2022/05/03 06:10:20;;;;;;;18.73;16.37;;;11.00;99.90;;;;;;5087473;28;20791;-66
2022/05/03 06:12:47;;;;;;;18.10;16.33;;;11.10;99.90;;;;;;5088025;28;20461;-65
2022/05/03 06:15:14;;;;;;;17.73;16.13;;;11.20;99.90;;;;;;5088695;28;20442;-65
2022/05/03 06:17:41;;;;;;;17.27;15.73;;;11.30;99.90;;;;;;5089203;28;20846;-65
2022/05/03 06:20:09;;;;;;;18.00;16.40;;;11.40;99.90;;;;;;5089097;28;20446;-66
2022/05/03 06:22:36;;;;;;;18.27;16.47;;;11.40;99.90;;;;;;5090156;28;20507;-66
2022/05/03 06:25:04;;;;;;;18.23;16.53;;;11.60;99.90;;;;;;5091082;28;20478;-64
2022/05/03 06:27:31;;;;;;;17.10;15.40;;;11.70;99.90;;;;;;5090590;28;20453;-66
2022/05/03 06:29:58;;;;;;;17.90;16.13;;;11.80;99.90;;;;;;5090814;28;20450;-66
2022/05/03 06:32:25;;;;;;;16.47;15.03;;;11.80;99.90;;;;;;5091517;28;20480;-66
2022/05/03 06:34:52;;;;;;;16.27;14.27;;;11.90;99.90;;;;;;5091399;28;20542;-66
2022/05/03 06:37:19;;;;;;;16.97;15.17;;;12.10;99.90;;;;;;5091402;28;20450;-66
2022/05/03 06:39:45;;;;;;;16.00;14.40;;;12.20;99.90;;;;;;5091181;28;20450;-66
2022/05/03 06:42:14;;;;;;;16.60;14.30;;;12.30;99.90;;;;;;5090993;28;20503;-66
2022/05/03 06:44:41;;;;;;;17.80;16.00;;;12.40;99.90;;;;;;5091044;28;20477;-67
2022/05/03 06:47:08;;;;;;;17.80;16.10;;;12.60;99.90;;;;;;5091236;28;20485;-66
2022/05/03 06:49:36;;;;;;;17.30;15.70;;;12.70;99.90;;;;;;5091126;28;21217;-66
2022/05/03 06:52:03;;;;;;;18.20;16.60;;;12.70;99.90;;;;;;5090872;28;20466;-66
2022/05/03 06:54:30;;;;;;;16.97;15.47;;;12.90;99.90;;;;;;5091313;28;20442;-66
2022/05/03 06:56:56;;;;;;;17.93;16.23;;;13.10;99.90;;;;;;5090971;28;20525;-66
2022/05/03 06:59:25;;;;;;;18.77;17.07;;;13.20;99.90;;;;;;5091056;28;20442;-66
2022/05/03 07:01:51;;;;;;;17.20;15.67;;;13.30;99.90;;;;;;5090496;28;21007;-66
2022/05/03 07:04:18;;;;;;;17.80;16.10;;;13.50;99.90;;;;;;5090826;28;20485;-66
2022/05/03 07:06:45;;;;;;;19.60;16.70;;;13.60;99.90;;;;;;5090894;28;20870;-66
2022/05/03 07:09:12;;;;;;;17.00;15.20;;;13.80;99.90;;;;;;5090735;28;20453;-66
2022/05/03 07:11:39;;;;;;;17.13;15.57;;;13.80;99.90;;;;;;5090181;28;20472;-66
2022/05/03 07:14:06;;;;;;;15.50;14.10;;;13.90;99.90;;;;;;5090766;28;20450;-66
2022/05/03 07:16:34;;;;;;;17.40;15.80;;;14.00;99.90;;;;;;5090327;28;20946;-65
2022/05/03 07:24:26;;;;;;;16.10;14.70;;;14.50;99.90;;;;;;5067015;28;20474;-66
2022/05/03 07:26:52;;;;;;;16.67;15.17;;;14.60;99.90;;;;;;5091248;28;20442;-66
2022/05/03 07:29:19;;;;;;;16.90;15.50;;;14.80;99.90;;;;;;5091100;28;20442;-66
2022/05/03 07:31:48;;;;;;;16.83;15.23;;;14.80;99.90;;;;;;5089846;28;20470;-66
2022/05/03 07:34:15;;;;;;;15.63;14.20;;;14.80;99.90;;;;;;5090330;28;20453;-66
2022/05/03 07:36:43;;;;;;;13.70;12.40;;;14.90;99.90;;;;;;5090033;28;20533;-66
2022/05/03 07:39:10;;;;;;;14.33;12.93;;;15.00;99.90;;;;;;5090228;28;20533;-65
2022/05/03 07:41:37;;;;;;;13.03;11.80;;;15.10;99.90;;;;;;5089743;28;20516;-66
2022/05/03 07:44:04;;;;;;;12.30;11.20;;;15.30;99.90;;;;;;5089879;28;20524;-66
2022/05/03 07:46:31;;;;;;;11.53;10.53;;;15.40;99.90;;;;;;5089882;28;20473;-66
2022/05/03 07:48:59;;;;;;;12.20;10.90;;;15.60;99.90;;;;;;5089823;28;20953;-66
2022/05/03 07:51:26;;;;;;;12.67;11.57;;;15.80;99.90;;;;;;5089542;28;20553;-66
2022/05/03 07:53:53;;;;;;;11.50;10.50;;;16.00;99.90;;;;;;5090082;28;20442;-65
2022/05/03 07:56:19;;;;;;;11.30;10.30;;;16.20;99.90;;;;;;5090014;28;20447;-66
2022/05/03 07:58:48;;;;;;;12.50;11.20;;;16.40;99.90;;;;;;5089986;28;20442;-66
2022/05/03 08:01:15;;;;;;;10.70;9.73;;;16.60;99.90;;;;;;5089382;28;21048;-66
2022/05/03 08:03:41;;;;;;;10.17;9.27;;;16.50;99.90;;;;;;5089511;28;20824;-66
2022/05/03 08:06:09;;;;;;;11.53;10.50;;;16.60;99.90;;;;;;5089485;28;20569;-66
2022/05/03 08:08:36;;;;;;;9.60;8.70;;;16.80;99.90;;;;;;5089786;28;20446;-66
2022/05/03 08:11:04;;;;;;;9.10;8.30;;;17.00;99.90;;;;;;5089199;28;20461;-64
2022/05/03 08:13:31;;;;;;;9.30;8.40;;;17.00;99.90;;;;;;5089564;28;21146;-64
2022/05/03 08:15:58;;;;;;;9.57;8.67;;;17.20;99.90;;;;;;5089506;28;20444;-64
2022/05/03 08:18:24;;;;;;;9.93;7.37;;;17.40;99.90;;;;;;5089728;28;20450;-65
2022/05/03 08:20:53;;;;;;;8.80;7.90;;;17.60;99.90;;;;;;5088999;28;20519;-64
2022/05/03 08:23:21;;;;;;;10.07;7.67;;;17.80;99.90;;;;;;5089602;28;20992;-64
2022/05/03 08:25:48;;;;;;;9.57;8.67;;;17.80;99.90;;;;;;5089435;28;20482;-64
2022/05/03 08:28:15;;;;;;;8.40;7.67;;;17.90;99.90;;;;;;5089447;28;20512;-63
2022/05/03 08:30:42;;;;;;;8.80;8.10;;;17.90;99.90;;;;;;5089520;28;20830;-64
2022/05/03 08:33:09;;;;;;;7.33;6.63;;;17.90;99.90;;;;;;5093501;28;20442;-63
2022/05/03 08:35:35;;;;;;;11.17;8.50;;;18.00;99.90;;;;;;5093699;28;20446;-64
2022/05/03 08:43:32;;;;;;;8.27;7.57;;;17.90;99.90;;;;;;5093901;28;20421;-66
2022/05/03 08:46:01;;;;;;;9.70;8.90;;;18.10;99.90;;;;;;5089066;28;20478;-62
2022/05/03 08:48:34;;;;;;;7.00;6.40;;;18.20;99.90;;;;;;5092508;28;20791;-65
2022/05/03 08:51:01;;;;;;;16.37;8.87;;;18.60;99.90;;;;;;5092122;28;21038;-62
2022/05/03 08:53:29;;;;;;;8.03;7.23;;;18.70;99.90;;;;;;5092325;28;20473;-63
2022/05/03 08:55:58;;;;;;;10.07;6.87;;;18.90;99.90;;;;;;5092652;28;20516;-63
2022/05/03 08:58:25;;;;;;;8.60;7.70;;;19.00;99.90;;;;;;5092408;28;20849;-63
2022/05/03 09:00:51;;;;;;;8.90;8.03;;;18.70;99.90;;;;;;5092318;28;20838;-63
2022/05/03 09:03:18;;;;;;;8.90;8.00;;;18.50;99.90;;;;;;5092398;28;20438;-63
2022/05/03 09:05:45;;;;;;;7.20;6.50;;;18.40;99.90;;;;;;5092259;28;21105;-63
2022/05/03 09:08:12;;;;;;;6.63;6.03;;;18.60;99.90;;;;;;5091843;28;20848;-66
2022/05/03 09:10:41;;;;;;;5.60;5.10;;;18.70;99.90;;;;;;5091950;28;20462;-64
2022/05/03 09:13:18;;;;;;;6.80;6.10;;;19.00;99.90;;;;;;5092225;28;20492;-63
2022/05/03 09:15:46;;;;;;;7.07;6.37;;;19.60;99.90;;;;;;5092135;28;20449;-66
2022/05/03 09:18:22;;;;;;;6.93;6.07;;;20.30;99.90;;;;;;5091896;28;20446;-63
2022/05/03 09:23:48;;;;;;;7.63;6.13;;;20.40;99.90;;;;;;5091869;28;20817;-66
2022/05/03 09:26:17;;;;;;;5.50;4.90;;;20.90;99.90;;;;;;5091774;28;20489;-66
2022/05/03 09:28:48;;;;;;;6.33;5.77;;;21.50;99.90;;;;;;5091465;28;20569;-66
2022/05/03 09:31:26;;;;;;;6.50;5.90;;;21.70;97.30;;;;;;5091043;28;20474;-65
2022/05/03 09:33:53;;;;;;;5.90;5.40;;;21.80;96.90;;;;;;5091805;28;20495;-65
2022/05/03 09:36:20;;;;;;;7.70;5.30;;;21.70;96.70;;;;;;5091597;28;20438;-66
2022/05/03 09:38:47;;;;;;;6.27;5.67;;;21.60;98.90;;;;;;5091387;28;20452;-66
2022/05/03 09:41:15;;;;;;;5.83;5.30;;;21.80;96.70;;;;;;5090853;28;20497;-63
2022/05/03 09:44:02;;;;;;;5.50;4.97;;;21.90;96.20;;;;;;5089924;28;20517;-64
2022/05/03 09:46:28;;;;;;;5.67;5.17;;;22.30;96.20;;;;;;5091222;28;20477;-63
2022/05/03 09:48:55;;;;;;;6.10;5.50;;;22.40;97.10;;;;;;5091414;28;20446;-62
2022/05/03 09:51:23;;;;;;;5.33;4.83;;;22.60;94.70;;;;;;5091039;28;20473;-64
2022/05/03 09:53:57;;;;;;;5.90;5.40;;;22.50;94.00;;;;;;5091264;28;20458;-65
2022/05/03 09:56:27;;;;;;;6.73;6.13;;;22.60;94.40;;;;;;5091477;28;20445;-66
2022/05/03 09:59:00;;;;;;;5.40;4.90;;;22.50;94.40;;;;;;5091185;28;20446;-63
2022/05/03 10:01:29;;;;;;;5.40;4.33;;;23.00;96.00;;;;;;5090897;28;20549;-64
2022/05/03 10:03:56;;;;;;;4.70;4.30;;;23.10;92.40;;;;;;5090963;28;20464;-63
2022/05/03 10:06:23;;;;;;;5.67;4.87;;;23.60;93.10;;;;;;5090957;28;20901;-63
2022/05/03 10:08:51;;;;;;;6.20;5.60;;;24.00;92.70;;;;;;5090865;28;20446;-62
2022/05/03 10:11:18;;;;;;;5.80;4.50;;;24.60;89.90;;;;;;5090613;28;20470;-64
2022/05/03 10:13:45;;;;;;;4.63;4.23;;;24.50;88.80;;;;;;5090312;28;20488;-63
2022/05/03 10:21:51;;;;;;;5.23;4.73;;;24.30;90.40;;;;;;5070249;28;20446;-64
2022/05/03 10:24:19;;;;;;;5.97;4.77;;;24.30;87.30;;;;;;5070469;28;20451;-63
2022/05/03 10:27:01;;;;;;;5.83;5.30;;;24.40;90.60;;;;;;5070317;28;20486;-64
2022/05/03 10:29:29;;;;;;;5.00;4.57;;;25.00;90.50;;;;;;5070093;28;20447;-64
2022/05/03 10:31:59;;;;;;;6.17;5.60;;;25.60;85.70;;;;;;5070600;28;20558;-63
2022/05/03 10:34:59;;;;;;;6.50;5.90;;;24.90;85.30;;;;;;5071208;28;20454;-65
2022/05/03 10:38:07;;;;;;;7.43;6.73;;;24.60;86.50;;;;;;5071386;28;20448;-65
2022/05/03 10:40:39;;;;;;;7.50;6.47;;;24.10;88.80;;;;;;5070990;28;20533;-65
2022/05/03 10:43:12;;;;;;;6.50;5.80;;;24.40;87.10;;;;;;5070902;28;20516;-63
2022/05/03 10:45:50;;;;;;;7.70;6.90;;;25.20;85.00;;;;;;5070893;28;20977;-65
2022/05/03 10:48:30;;;;;;;6.93;6.43;;;25.10;89.70;;;;;;5070849;28;20446;-65
2022/05/03 10:51:00;;;;;;;7.07;6.47;;;25.30;84.80;;;;;;5070716;28;21012;-65
2022/05/03 10:53:33;;;;;;;7.43;6.73;;;25.00;85.60;;;;;;5070616;28;20448;-65
2022/05/03 10:56:21;;;;;;;9.20;8.33;;;25.20;84.10;;;;;;5070815;28;21028;-64
2022/05/03 10:59:05;;;;;;;9.53;7.20;;;24.40;86.40;;;;;;5070957;28;20793;-60
2022/05/03 11:01:33;;;;;;;9.40;8.50;;;24.60;91.40;;;;;;5070370;28;20546;-64
2022/05/03 11:04:11;;;;;;;7.80;6.90;;;25.00;88.90;;;;;;5070453;28;20451;-61
2022/05/03 11:06:49;;;;;;;9.70;8.90;;;25.60;86.90;;;;;;5070299;28;20494;-61
2022/05/03 11:09:26;;;;;;;8.10;7.50;;;25.60;87.10;;;;;;5071021;28;20475;-65
2022/05/03 11:12:02;;;;;;;7.23;6.63;;;25.80;86.40;;;;;;5070140;28;20497;-62
2022/05/03 11:14:54;;;;;;;7.87;7.27;;;26.60;86.90;;;;;;5070447;28;20453;-60
2022/05/03 11:17:21;;;;;;;8.10;7.43;;;26.30;78.70;;;;;;5070442;28;20454;-62
2022/05/03 11:19:58;;;;;;;7.10;6.50;;;24.80;82.20;;;;;;5070170;28;20966;-62
2022/05/03 11:22:29;;;;;;;6.90;6.30;;;24.50;86.30;;;;;;5070164;28;20554;-63
2022/05/03 11:24:57;;;;;;;10.17;6.93;;;25.20;90.50;;;;;;5070197;28;20461;-62
2022/05/03 11:27:24;;;;;;;7.93;7.10;;;26.70;85.90;;;;;;5070148;28;20888;-62
2022/05/03 11:29:56;;;;;;;8.00;7.30;;;27.10;81.40;;;;;;5069811;28;20893;-62
2022/05/03 11:32:33;;;;;;;10.30;7.87;;;26.90;80.10;;;;;;5070339;28;20462;-63
2022/05/03 11:35:05;;;;;;;9.87;8.07;;;27.10;80.00;;;;;;5070263;28;21236;-64
2022/05/03 11:37:34;;;;;;;7.80;7.10;;;27.00;80.90;;;;;;5070396;28;20451;-65
2022/05/03 11:40:06;;;;;;;11.90;7.70;;;26.00;83.70;;;;;;5069906;28;20830;-63
2022/05/03 11:42:38;;;;;;;7.30;6.37;;;26.40;82.40;;;;;;5070160;28;20459;-65
2022/05/03 11:45:06;;;;;;;8.33;5.87;;;26.50;79.10;;;;;;5072407;28;20449;-64
2022/05/03 11:47:38;;;;;;;6.40;5.33;;;26.50;81.10;;;;;;5088593;28;20439;-64
2022/05/03 11:50:06;;;;;;;6.70;6.10;;;26.30;77.90;;;;;;5088525;28;20442;-64
2022/05/03 11:58:04;;;;;;;10.40;7.60;;;26.90;80.20;;;;;;5088474;28;20453;-62
2022/05/03 12:00:31;;;;;;;7.63;6.83;;;25.00;79.50;;;;;;5088795;28;20498;-63
2022/05/03 12:03:01;;;;;;;8.47;7.27;;;23.60;86.50;;;;;;5089810;28;20849;-63
2022/05/03 12:05:28;;;;;;;8.30;7.30;;;22.70;88.10;;;;;;5088961;28;20477;-64
2022/05/03 12:08:01;;;;;;;7.03;6.23;;;22.60;88.50;;;;;;5089672;28;20454;-63
2022/05/03 12:10:30;;;;;;;8.70;6.90;;;23.10;86.70;;;;;;5089548;28;20501;-63
2022/05/03 12:13:09;;;;;;;7.47;6.43;;;23.70;87.60;;;;;;5089651;28;20446;-64
2022/05/03 12:15:38;;;;;;;6.87;6.23;;;23.00;86.60;;;;;;5089755;28;21173;-64
2022/05/03 12:18:13;;;;;;;6.07;5.37;;;22.20;88.80;;;;;;5089482;28;20850;-63
2022/05/03 12:20:46;;;;;;;5.97;5.37;;;21.60;89.90;;;;;;5089254;28;21033;-62
2022/05/03 12:23:19;;;;;;;8.77;5.23;;;21.40;92.00;;;;;;5087060;28;20460;-64
2022/05/03 12:25:47;;;;;;;6.00;5.40;;;21.70;91.80;;;;;;5088318;28;20564;-63
2022/05/03 12:28:14;;;;;;;6.27;5.77;;;22.00;92.70;;;;;;5088510;28;20775;-66
2022/05/03 12:30:42;;;;;;;15.50;5.80;;;22.30;92.00;;;;;;5087859;28;20469;-63
2022/05/03 12:33:12;;;;;;;5.30;4.80;;;22.80;89.50;;;;;;5088524;28;20955;-63
2022/05/03 12:35:42;;;;;;;5.53;5.00;;;24.00;87.90;;;;;;5088314;28;20453;-63
2022/05/03 12:38:11;;;;;;;5.67;5.17;;;23.80;82.70;;;;;;5084500;28;20806;-63
2022/05/03 12:40:48;;;;;;;6.10;4.87;;;23.60;83.10;;;;;;5082985;28;20545;-64
2022/05/03 12:43:20;;;;;;;5.80;5.30;;;23.30;82.50;;;;;;5086065;28;20465;-65
2022/05/03 12:46:02;;;;;;;6.33;5.67;;;23.10;80.80;;;;;;5085995;28;20474;-63
2022/05/03 12:48:31;;;;;;;6.57;4.90;;;22.80;80.80;;;;;;5086268;28;20442;-63
2022/05/03 12:50:59;;;;;;;5.40;4.90;;;22.50;83.60;;;;;;5084308;28;20538;-60
2022/05/03 12:53:27;;;;;;;5.60;4.93;;;22.50;86.20;;;;;;5080190;28;20856;-65
2022/05/03 12:55:56;;;;;;;7.23;4.67;;;22.30;89.70;;;;;;5086185;28;20446;-63
2022/05/03 12:58:24;;;;;;;5.50;4.50;;;22.20;87.90;;;;;;5084911;28;20453;-62
2022/05/03 13:00:52;;;;;;;5.70;5.13;;;22.00;88.00;;;;;;5078992;28;20525;-64
2022/05/03 13:03:19;;;;;;;15.10;5.50;;;21.70;90.30;;;;;;5084523;28;20446;-64
2022/05/03 13:05:46;;;;;;;7.47;5.20;;;21.70;91.50;;;;;;5088239;28;20478;-66
2022/05/03 13:08:13;;;;;;;6.70;5.30;;;21.50;90.90;;;;;;5087641;28;20450;-63
2022/05/03 13:10:40;;;;;;;6.00;5.40;;;21.40;92.40;;;;;;5087550;28;20988;-63
2022/05/03 13:13:08;;;;;;;6.13;5.53;;;21.10;93.50;;;;;;5087939;28;20449;-63
2022/05/03 13:15:35;;;;;;;5.80;5.30;;;20.70;94.40;;;;;;5081911;28;20442;-63
2022/05/03 13:18:02;;;;;;;7.87;6.40;;;20.20;94.90;;;;;;5087990;28;20468;-63
2022/05/03 13:20:29;;;;;;;7.07;6.23;;;20.00;96.50;;;;;;5083350;28;20473;-63
2022/05/03 13:22:56;;;;;;;9.20;6.70;;;19.50;98.30;;;;;;5089611;28;20446;-63
2022/05/03 13:25:23;;;;;;;24.07;10.80;;;19.10;99.90;;;;;;5090873;28;21225;-63
2022/05/03 13:27:53;;;;;;;18.30;11.80;;;18.00;99.90;;;;;;5091270;28;20492;-62